Time;durP1;ratioP1;P1;durP2;ratioP2;P2;SDS_P1;SDS_P2;PMS_P1;PMS_P2;Temp;Humidity;BMP_temperature;BMP_pressure;BME280_temperature;BME280_humidity;BME280_pressure;Samples;Min_cycle;Max_cycle;Signal;HPM_P1;HPM_P2
2020/12/22 00:01:38;;;;;;;;;;;;;;;4.44;100.00;98868.59;5056464;28;20009;-86
2020/12/22 00:04:03;;;;;;;43.60;19.17;;;;;;;4.21;100.00;98839.59;5057181;28;19905;-85
2020/12/22 00:06:29;;;;;;;51.13;21.65;;;;;;;4.16;100.00;98848.44;5057059;28;20073;-85
2020/12/22 00:08:54;;;;;;;;;;;;;;;4.46;100.00;98877.31;5057103;28;20046;-85
2020/12/22 00:11:21;;;;;;;46.70;19.75;;;;;;;4.18;100.00;98850.88;5056043;28;19925;-87
2020/12/22 00:13:47;;;;;;;47.17;20.10;;;;;;;4.18;100.00;98849.00;5057486;28;20069;-83
2020/12/22 00:16:14;;;;;;;49.08;21.30;;;;;;;4.25;100.00;98855.16;5057365;28;20017;-83
2020/12/22 00:18:41;;;;;;;48.92;24.13;;;;;;;4.18;100.00;98851.72;5056576;28;20093;-85
2020/12/22 00:21:09;;;;;;;54.22;24.33;;;;;;;4.40;100.00;98860.13;5057432;28;20009;-85
2020/12/22 00:23:34;;;;;;;44.38;23.13;;;;;;;4.29;100.00;98848.19;5056524;28;20048;-86
2020/12/22 00:26:00;;;;;;;34.83;20.00;;;;;;;4.35;100.00;98861.88;5057074;28;20021;-86
2020/12/22 00:28:25;;;;;;;48.03;22.17;;;;;;;4.38;100.00;98853.28;5056720;28;20037;-88
2020/12/22 00:30:51;;;;;;;48.28;21.13;;;;;;;4.38;100.00;98854.13;5057222;28;20030;-87
2020/12/22 00:33:17;;;;;;;52.95;24.13;;;;;;;4.29;100.00;98831.94;5057180;28;20052;-86
2020/12/22 00:35:42;;;;;;;;;;;;;;;4.58;100.00;98867.31;5057196;28;20033;-87
2020/12/22 00:38:09;;;;;;;48.70;22.63;;;;;;;4.27;100.00;98831.38;5057942;28;19924;-85
2020/12/22 00:40:35;;;;;;;63.88;26.85;;;;;;;4.47;100.00;98862.72;5056667;28;20014;-86
2020/12/22 00:43:02;;;;;;;54.38;24.10;;;;;;;4.27;100.00;98827.81;5057344;28;20042;-83
2020/12/22 00:45:30;;;;;;;54.13;26.85;;;;;;;4.29;100.00;98844.69;5057084;28;20027;-86
2020/12/22 00:47:59;;;;;;;57.80;27.13;;;;;;;4.25;100.00;98832.66;5057342;28;20041;-83
2020/12/22 00:50:24;;;;;;;59.67;24.83;;;;;;;4.19;100.00;98829.00;5057467;28;20055;-80
2020/12/22 00:52:50;;;;;;;55.97;23.83;;;;;;;4.22;100.00;98833.97;5056949;28;20033;-82
2020/12/22 00:55:15;;;;;;;46.83;23.77;;;;;;;4.23;100.00;98834.75;5057260;28;20049;-81
2020/12/22 00:57:41;;;;;;;46.47;24.35;;;;;;;4.32;100.00;98828.78;5059188;28;20005;-81
2020/12/22 01:00:07;;;;;;;;;;;;;;;4.48;100.00;98856.25;5061307;28;20013;-81
2020/12/22 01:02:34;;;;;;;57.90;21.58;;;;;;;4.24;100.00;98823.72;5060847;28;19917;-83
2020/12/22 01:04:59;;;;;;;53.40;24.27;;;;;;;4.26;100.00;98828.91;5061259;28;20013;-82
2020/12/22 01:07:25;;;;;;;56.72;24.17;;;;;;;4.21;100.00;98823.34;5061190;28;20052;-81
2020/12/22 01:09:53;;;;;;;52.00;23.35;;;;;;;4.26;100.00;98827.00;5061175;28;20089;-82
2020/12/22 01:12:19;;;;;;;52.95;23.35;;;;;;;4.20;100.00;98819.81;5061032;28;20017;-83
2020/12/22 01:14:44;;;;;;;50.03;23.95;;;;;;;4.27;100.00;98831.38;5061001;28;20033;-81
2020/12/22 01:17:13;;;;;;;53.00;24.77;;;;;;;4.30;100.00;98821.94;5060850;28;20029;-81
2020/12/22 01:19:38;;;;;;;58.45;24.75;;;;;;;4.27;100.00;98823.25;5061210;28;20018;-84
2020/12/22 01:22:04;;;;;;;62.90;27.42;;;;;;;4.22;100.00;98816.88;5060805;28;20034;-83
2020/12/22 01:24:29;;;;;;;59.53;23.17;;;;;;;4.33;100.00;98826.91;5060389;28;20055;-84
2020/12/22 01:26:55;;;;;;;53.08;22.55;;;;;;;4.23;100.00;98818.50;5060421;28;20032;-81
2020/12/22 01:29:24;;;;;;;61.28;26.40;;;;;;;4.22;100.00;98817.72;5060849;28;20033;-81
2020/12/22 01:31:49;;;;;;;45.70;21.10;;;;;;;4.27;100.00;98820.53;5060175;28;20013;-85
2020/12/22 01:34:15;;;;;;;49.70;23.15;;;;;;;4.19;100.00;98818.19;5060207;28;20016;-82
2020/12/22 01:36:41;;;;;;;36.10;19.77;;;;;;;4.17;100.00;98811.31;5060039;28;20030;-82
2020/12/22 01:39:06;;;;;;;;;;;;;;;4.39;100.00;98834.06;5061741;28;20040;-83
2020/12/22 01:41:38;;;;;;;39.95;18.73;;;;;;;4.24;100.00;98809.34;5060001;28;19908;-83
2020/12/22 01:44:08;;;;;;;43.30;20.35;;;;;;;4.30;100.00;98803.00;5059995;28;20009;-80
2020/12/22 01:46:35;;;;;;;39.92;20.15;;;;;;;4.39;100.00;98800.75;5060577;28;20010;-81
2020/12/22 01:49:00;;;;;;;50.65;19.83;;;;;;;4.40;100.00;98802.41;5060162;28;20216;-81
2020/12/22 01:51:28;;;;;;;39.92;19.33;;;;;;;4.38;100.00;98796.41;5060430;28;20049;-83
2020/12/22 01:53:54;;;;;;;42.30;17.58;;;;;;;4.35;100.00;98795.00;5059896;28;20025;-81
2020/12/22 01:56:20;;;;;;;33.38;17.42;;;;;;;4.39;100.00;98790.75;5060322;28;20017;-81
2020/12/22 01:58:45;;;;;;;49.03;19.52;;;;;;;4.41;100.00;98793.25;5060081;28;20016;-81
2020/12/22 02:01:11;;;;;;;40.47;19.52;;;;;;;4.35;100.00;98794.19;5059391;28;20072;-83
2020/12/22 02:03:37;;;;;;;41.22;18.92;;;;;;;4.26;100.00;98780.97;5059773;28;20038;-82
2020/12/22 02:06:02;;;;;;;44.97;18.40;;;;;;;4.30;100.00;98793.00;5060030;28;20018;-80
2020/12/22 02:08:28;;;;;;;38.50;17.25;;;;;;;4.52;100.00;98828.44;5059828;28;20029;-79
2020/12/22 02:10:56;;;;;;;49.88;18.35;;;;;;;4.41;100.00;98812.19;5059428;28;20053;-80
2020/12/22 02:13:21;;;;;;;39.13;19.63;;;;;;;4.41;100.00;98823.03;5059804;28;20014;-80
2020/12/22 02:15:47;;;;;;;36.80;17.17;;;;;;;4.31;100.00;98788.41;5059032;28;20048;-80
2020/12/22 02:18:12;;;;;;;39.42;18.27;;;;;;;4.25;100.00;98784.75;5059416;28;20057;-80
2020/12/22 02:20:39;;;;;;;42.03;18.08;;;;;;;4.29;100.00;98777.78;5059230;28;20048;-81
2020/12/22 02:23:05;;;;;;;39.10;17.33;;;;;;;4.28;100.00;98795.13;5059186;28;20089;-86
2020/12/22 02:25:31;;;;;;;40.58;17.70;;;;;;;4.35;100.00;98791.47;5058923;28;20018;-87
2020/12/22 02:27:56;;;;;;;37.72;16.13;;;;;;;4.34;100.00;98796.06;5058166;28;20021;-88
2020/12/22 02:30:23;;;;;;;;;;;;;;;4.53;100.00;98813.03;5059445;28;20048;-89
2020/12/22 02:32:49;;;;;;;39.50;16.80;;;;;;;4.30;100.00;98778.63;5058806;28;19916;-90
2020/12/22 02:35:14;;;;;;;35.38;17.42;;;;;;;4.32;100.00;98785.44;5058957;28;20021;-88
2020/12/22 02:37:40;;;;;;;35.15;17.05;;;;;;;4.23;100.00;98775.19;5059460;28;20021;-85
2020/12/22 02:40:05;;;;;;;35.38;18.27;;;;;;;4.13;100.00;98770.38;5058707;28;20488;-90
2020/12/22 02:42:32;;;;;;;;;;;;;;;4.33;100.00;98788.97;5058826;28;20009;-89
2020/12/22 02:44:57;;;;;;;36.47;17.13;;;;;;;4.07;100.00;98759.66;5058237;28;19924;-90
2020/12/22 02:47:23;;;;;;;33.20;15.73;;;;;;;4.03;100.00;98751.19;5058782;28;20017;-83
2020/12/22 02:49:48;;;;;;;31.05;15.80;;;;;;;4.14;100.00;98768.47;5058905;28;20033;-84
2020/12/22 02:52:13;;;;;;;;;;;;;;;4.44;100.00;98793.59;5059624;28;20080;-81
2020/12/22 02:54:39;;;;;;;31.40;16.30;;;;;;;4.19;100.00;98768.63;5058847;28;19971;-81
2020/12/22 02:57:04;;;;;;;43.30;16.75;;;;;;;4.31;100.00;98772.97;5059030;28;20044;-80
2020/12/22 02:59:30;;;;;;;33.08;16.15;;;;;;;4.20;100.00;98764.84;5058500;28;20026;-81
2020/12/22 03:01:56;;;;;;;35.00;18.25;;;;;;;4.21;100.00;98772.75;5058645;28;20071;-81
2020/12/22 03:04:21;;;;;;;35.80;15.85;;;;;;;4.22;100.00;98768.97;5058547;28;20012;-80
2020/12/22 03:06:50;;;;;;;;;;;;;;;4.54;100.00;98798.44;5058892;28;20001;-81
2020/12/22 03:09:15;;;;;;;29.13;13.43;;;;;;;4.23;100.00;98765.19;5059260;28;19905;-82
2020/12/22 03:11:41;;;;;;;35.72;15.93;;;;;;;4.30;100.00;98768.63;5058270;28;20074;-81
2020/12/22 03:14:06;;;;;;;37.20;16.13;;;;;;;4.48;100.00;98767.66;5058735;28;20029;-80
2020/12/22 03:16:32;;;;;;;33.72;15.95;;;;;;;4.40;100.00;98775.31;5058697;28;20029;-81
2020/12/22 03:18:57;;;;;;;33.78;15.10;;;;;;;4.30;100.00;98757.78;5057724;28;20028;-81
2020/12/22 03:21:23;;;;;;;;;;;;;;;4.70;100.00;98800.41;5058077;28;20037;-80
2020/12/22 03:23:48;;;;;;;31.48;15.52;;;;;;;4.31;100.00;98769.44;5058355;28;19924;-80
2020/12/22 03:26:14;;;;;;;33.33;15.18;;;;;;;4.41;100.00;98775.09;5058406;28;20021;-80
2020/12/22 03:28:39;;;;;;;29.48;15.90;;;;;;;4.41;100.00;98780.53;5058215;28;20017;-82
2020/12/22 03:31:05;;;;;;;28.52;14.73;;;;;;;4.37;100.00;98762.25;5057879;28;20024;-80
2020/12/22 03:33:30;;;;;;;35.67;16.83;;;;;;;4.33;100.00;98762.72;5057943;28;20085;-80
2020/12/22 03:35:56;;;;;;;26.67;15.10;;;;;;;4.58;100.00;98777.91;5058443;28;20040;-80
2020/12/22 03:38:21;;;;;;;34.67;16.55;;;;;;;4.38;100.00;98762.03;5057888;28;20549;-92
2020/12/22 03:40:47;;;;;;;36.38;16.50;;;;;;;4.33;100.00;98772.72;5057920;28;20093;-84
2020/12/22 03:43:12;;;;;;;;;;;;;;;4.64;100.00;98794.03;5057528;28;20013;-88
2020/12/22 03:45:41;;;;;;;41.80;16.25;;;;;;;4.26;100.00;98747.69;5058239;28;19927;-83
2020/12/22 03:48:07;;;;;;;36.50;16.00;;;;;;;4.37;100.00;98759.56;5057492;28;20009;-85
2020/12/22 03:50:32;;;;;;;31.80;17.58;;;;;;;4.37;100.00;98763.09;5057713;28;20075;-88
2020/12/22 03:53:01;;;;;;;38.65;19.05;;;;;;;4.33;100.00;98764.59;5057135;28;20013;-84
2020/12/22 03:55:26;;;;;;;40.28;18.13;;;;;;;4.25;100.00;98762.25;5057143;28;20047;-85
2020/12/22 03:57:52;;;;;;;40.38;18.95;;;;;;;4.33;100.00;98775.44;5057180;28;20025;-87
2020/12/22 04:00:17;;;;;;;;;;;;;;;4.53;100.00;98788.63;5058148;28;20016;-86
2020/12/22 04:02:43;;;;;;;31.23;16.88;;;;;;;4.24;100.00;98758.72;5057342;28;19907;-85
2020/12/22 04:05:11;;;;;;;38.67;19.05;;;;;;;4.19;100.00;98752.38;5057095;28;20020;-82
2020/12/22 04:07:37;;;;;;;39.22;20.17;;;;;;;4.35;100.00;98772.50;5056810;28;20026;-84
2020/12/22 04:10:05;;;;;;;38.42;20.77;;;;;;;4.31;100.00;98748.63;5057357;28;20081;-82
2020/12/22 04:12:31;;;;;;;35.05;18.92;;;;;;;4.30;100.00;98755.09;5057390;28;20104;-81
2020/12/22 04:14:57;;;;;;;36.17;18.90;;;;;;;4.29;100.00;98731.75;5057681;28;20013;-83
2020/12/22 04:17:22;;;;;;;40.83;20.42;;;;;;;4.49;100.00;98758.50;5057370;28;20089;-86
2020/12/22 04:19:47;;;;;;;;;;;;;;;4.65;100.00;98767.78;5057206;28;20013;-83
2020/12/22 04:22:13;;;;;;;36.08;19.02;;;;;;;4.33;100.00;98724.81;5057333;28;19929;-84
2020/12/22 04:24:38;;;;;;;36.55;18.40;;;;;;;4.31;100.00;98724.25;5057225;28;20017;-81
2020/12/22 04:27:04;;;;;;;35.58;19.92;;;;;;;4.36;100.00;98725.41;5057074;28;20037;-81
2020/12/22 04:29:29;;;;;;;;;;;;;;;4.69;100.00;98755.41;5058020;28;20052;-85
2020/12/22 04:31:55;;;;;;;34.67;18.10;;;;;;;4.29;100.00;98730.97;5056668;28;19988;-81
2020/12/22 04:34:20;;;;;;;38.83;19.15;;;;;;;4.21;100.00;98729.41;5057121;28;20026;-81
2020/12/22 04:36:46;;;;;;;42.67;17.55;;;;;;;4.32;100.00;98725.88;5057544;28;20018;-85
2020/12/22 04:39:11;;;;;;;;;;;;;;;4.43;100.00;98750.47;5057773;28;20017;-81
2020/12/22 04:41:38;;;;;;;39.10;18.50;;;;;;;4.10;100.00;98732.94;5057506;28;19940;-84
2020/12/22 04:44:04;;;;;;;36.10;19.45;;;;;;;4.11;100.00;98742.72;5056907;28;20014;-81
2020/12/22 04:46:31;;;;;;;35.58;19.08;;;;;;;4.28;100.00;98740.13;5057468;28;20086;-81
2020/12/22 04:48:58;;;;;;;37.33;18.48;;;;;;;4.21;100.00;98734.84;5057516;28;20024;-81
2020/12/22 04:51:24;;;;;;;48.92;20.38;;;;;;;4.28;100.00;98735.56;5057008;28;20081;-81
2020/12/22 04:53:51;;;;;;;45.15;22.75;;;;;;;4.38;100.00;98753.09;5056978;28;20017;-81
2020/12/22 04:56:19;;;;;;;44.58;20.25;;;;;;;4.32;100.00;98730.50;5056674;28;20029;-81
2020/12/22 04:58:44;;;;;;;39.33;19.25;;;;;;;4.24;100.00;98739.78;5056699;28;20049;-82
2020/12/22 05:01:10;;;;;;;43.63;19.63;;;;;;;4.38;100.00;98745.78;5057316;28;20013;-84
2020/12/22 05:03:35;;;;;;;42.00;20.02;;;;;;;4.37;100.00;98749.56;5056910;28;20044;-81
2020/12/22 05:06:01;;;;;;;38.85;20.98;;;;;;;4.29;100.00;98749.91;5056897;28;20021;-81
2020/12/22 05:08:26;;;;;;;39.28;20.05;;;;;;;4.43;100.00;98766.72;5056521;28;20041;-81
2020/12/22 05:10:52;;;;;;;;;;;;;;;4.54;100.00;98793.00;5057520;28;20021;-82
2020/12/22 05:13:21;;;;;;;38.13;19.95;;;;;;;4.56;100.00;98799.84;5057294;28;19909;-81
2020/12/22 05:15:50;;;;;;;46.25;23.20;;;;;;;4.35;100.00;98756.25;5056556;28;20022;-81
2020/12/22 05:18:19;;;;;;;47.35;21.13;;;;;;;4.42;100.00;98763.19;5056629;28;20016;-82
2020/12/22 05:20:47;;;;;;;52.17;23.13;;;;;;;4.32;100.00;98758.38;5056822;28;20030;-79
2020/12/22 05:23:17;;;;;;;48.45;21.25;;;;;;;4.21;100.00;98742.94;5057122;28;20061;-82
2020/12/22 05:25:44;;;;;;;53.78;23.80;;;;;;;4.20;100.00;98752.13;5057064;28;20009;-83
2020/12/22 05:28:14;;;;;;;55.97;21.83;;;;;;;4.14;100.00;98755.78;5056629;28;20002;-83
2020/12/22 05:30:42;;;;;;;49.03;21.67;;;;;;;4.19;100.00;98752.38;5056571;28;20010;-81
2020/12/22 05:33:11;;;;;;;43.08;20.40;;;;;;;4.31;100.00;98769.44;5056619;28;20081;-84
2020/12/22 05:35:38;;;;;;;57.17;23.40;;;;;;;4.11;100.00;98740.00;5056438;28;20041;-83
2020/12/22 05:38:05;;;;;;;51.65;22.88;;;;;;;4.15;100.00;98752.03;5056993;28;20044;-80
2020/12/22 05:40:32;;;;;;;50.42;21.05;;;;;;;4.16;100.00;98753.69;5057588;28;20029;-81
2020/12/22 05:42:59;;;;;;;46.08;21.13;;;;;;;4.25;100.00;98773.94;5057593;28;20010;-81
2020/12/22 05:45:36;;;;;;;48.53;20.38;;;;;;;4.21;100.00;98756.50;5060055;28;20040;-81
2020/12/22 05:48:05;;;;;;;61.42;22.95;;;;;;;4.19;100.00;98739.66;5060473;28;20029;-81
2020/12/22 05:50:32;;;;;;;44.75;19.98;;;;;;;4.26;100.00;98744.97;5059969;28;20020;-82
2020/12/22 05:52:59;;;;;;;51.45;21.65;;;;;;;4.39;100.00;98769.09;5059989;28;20029;-81
2020/12/22 05:55:29;;;;;;;49.50;21.52;;;;;;;4.24;100.00;98737.06;5059844;28;20052;-81
2020/12/22 05:58:12;;;;;;;44.38;22.13;;;;;;;4.08;100.00;98737.75;5060412;28;20012;-81
2020/12/22 06:00:40;;;;;;;51.63;21.88;;;;;;;4.09;100.00;98742.13;5060375;28;20006;-81
2020/12/22 06:03:15;;;;;;;45.35;21.92;;;;;;;4.10;100.00;98760.00;5059690;28;20014;-81
2020/12/22 06:05:43;;;;;;;39.22;16.42;;;;;;;4.09;100.00;98757.53;5058896;28;20068;-90
2020/12/22 06:08:13;;;;;;;39.03;19.85;;;;;;;4.08;100.00;98751.28;5058011;28;20030;-86
2020/12/22 06:10:41;;;;;;;44.08;18.15;;;;;;;4.10;100.00;98748.38;5058937;28;20012;-90
2020/12/22 06:18:17;;;;;;;35.25;16.30;;;;;;;4.37;100.00;98782.03;5189702;22;20061;-89
2020/12/22 06:20:43;;;;;;;39.75;16.48;;;;;;;4.44;100.00;98781.94;5058810;28;20021;-85
2020/12/22 06:23:08;;;;;;;;;;;;;;;4.65;100.00;98805.72;5059672;28;20101;-86
2020/12/22 06:25:37;;;;;;;32.25;17.00;;;;;;;4.35;100.00;98775.22;5059271;28;19944;-89
2020/12/22 06:28:04;;;;;;;33.78;18.65;;;;;;;4.39;100.00;98776.38;5058743;28;20026;-81
2020/12/22 06:30:38;;;;;;;31.98;16.40;;;;;;;4.63;100.00;98788.88;5006109;28;20034;-83
2020/12/22 06:33:23;;;;;;;28.70;14.45;;;;;;;4.30;100.00;98765.09;5032652;28;20014;-86
2020/12/22 06:36:08;;;;;;;29.17;14.55;;;;;;;4.59;100.00;98814.78;5058878;28;20021;-82
2020/12/22 06:38:47;;;;;;;26.42;14.48;;;;;;;4.63;100.00;98821.38;5059615;28;20013;-82
2020/12/22 06:41:33;;;;;;;28.70;15.45;;;;;;;4.27;100.00;98779.91;5059181;28;20049;-83
2020/12/22 06:44:11;;;;;;;35.30;16.10;;;;;;;4.52;100.00;98816.78;5058926;28;20017;-82
2020/12/22 06:46:48;;;;;;;29.58;14.75;;;;;;;4.69;100.00;98823.16;5059006;28;20021;-92
2020/12/22 06:49:39;;;;;;;27.23;13.82;;;;;;;4.61;100.00;98783.69;5055571;28;20093;-87
2020/12/22 06:52:41;;;;;;;25.63;14.05;;;;;;;4.44;100.00;98755.69;5049666;28;20085;-87
2020/12/22 06:55:10;;;;;;;32.25;15.65;;;;;;;4.64;100.00;98785.09;5055912;28;20029;-88
2020/12/22 06:57:52;;;;;;;31.02;15.75;;;;;;;4.71;100.00;98773.06;5057054;28;20033;-91
2020/12/22 07:00:37;;;;;;;34.67;14.65;;;;;;;4.82;100.00;98790.41;5038692;28;20052;-88
2020/12/22 07:03:30;;;;;;;29.48;16.10;;;;;;;4.76;100.00;98792.16;5037014;28;20022;-90
2020/12/22 07:19:35;;;;;;;27.30;13.38;;;;;;;4.58;100.00;98759.78;5009156;28;20044;-83
2020/12/22 07:22:05;;;;;;;23.85;15.00;;;;;;;4.90;100.00;98786.47;5041184;28;20037;-88
2020/12/22 07:24:33;;;;;;;28.60;15.82;;;;;;;4.80;100.00;98778.94;5040828;28;20010;-87
2020/12/22 07:26:59;;;;;;;27.92;14.13;;;;;;;4.77;100.00;98763.16;5058332;28;20020;-86
2020/12/22 07:29:25;;;;;;;30.02;14.45;;;;;;;4.96;100.00;98756.53;5056724;28;20077;-82
2020/12/22 07:31:51;;;;;;;29.25;14.27;;;;;;;5.16;100.00;98759.69;5057711;28;20017;-85
2020/12/22 07:34:17;;;;;;;24.85;14.43;;;;;;;5.00;100.00;98784.00;5040364;28;20014;-87
2020/12/22 07:36:47;;;;;;;29.45;14.05;;;;;;;4.87;100.00;98757.97;5039752;28;20037;-85
2020/12/22 07:39:22;;;;;;;25.30;15.77;;;;;;;4.80;100.00;98765.41;5057996;28;20030;-83
2020/12/22 07:41:52;;;;;;;26.33;15.23;;;;;;;4.84;100.00;98772.84;5058150;28;20111;-86
2020/12/22 07:44:21;;;;;;;30.92;16.15;;;;;;;4.81;100.00;98773.31;5058848;28;20020;-87
2020/12/22 07:46:49;;;;;;;26.02;15.75;;;;;;;4.82;100.00;98774.94;5041082;28;20006;-83
2020/12/22 07:49:16;;;;;;;29.55;15.27;;;;;;;4.92;100.00;98785.16;5041139;28;20029;-86
2020/12/22 07:51:43;;;;;;;24.00;14.45;;;;;;;4.99;100.00;98785.03;5040870;28;20033;-85
2020/12/22 07:57:41;;;;;;;49.05;20.25;;;;;;;5.22;100.00;98817.53;5058328;28;20036;-89
2020/12/22 08:00:11;;;;;;;40.38;17.73;;;;;;;5.03;100.00;98797.91;5057282;28;20035;-83
2020/12/22 08:02:36;;;;;;;38.08;17.38;;;;;;;5.10;100.00;98793.19;5076896;28;20021;-85
2020/12/22 08:05:12;;;;;;;38.25;17.90;;;;;;;5.19;100.00;98801.75;5075759;28;20024;-87
2020/12/22 08:07:42;;;;;;;29.75;16.55;;;;;;;5.16;100.00;98792.22;5057528;28;20017;-85
2020/12/22 08:10:21;;;;;;;29.90;16.13;;;;;;;5.26;100.00;98795.09;5057155;28;20068;-83
2020/12/22 08:12:58;;;;;;;35.17;16.65;;;;;;;5.29;100.00;98813.63;5057576;28;20048;-85
2020/12/22 08:15:30;;;;;;;;;;;;;;;5.45;100.00;98822.88;5041416;28;20109;-82
2020/12/22 08:17:56;;;;;;;26.50;15.60;;;;;;;5.37;100.00;98804.28;5040362;28;19916;-85
2020/12/22 08:20:23;;;;;;;28.05;16.15;;;;;;;5.49;100.00;98818.63;5035811;28;20033;-89
2020/12/22 08:22:50;;;;;;;25.17;14.52;;;;;;;5.55;100.00;98816.84;5054531;28;20033;-90
2020/12/22 08:25:16;;;;;;;24.25;13.95;;;;;;;5.31;100.00;98816.94;5036252;28;20026;-92
2020/12/22 08:27:41;;;;;;;26.17;14.50;;;;;;;5.14;100.00;98794.31;5049272;28;20072;-93
2020/12/22 08:30:22;;;;;;;24.35;15.15;;;;;;;5.15;100.00;98793.28;5073533;28;20095;-91
2020/12/22 08:32:49;;;;;;;25.38;15.35;;;;;;;5.28;100.00;98790.28;5057248;28;20017;-87
2020/12/22 08:35:19;;;;;;;25.58;14.73;;;;;;;5.50;100.00;98824.88;5075235;28;20044;-86
2020/12/22 08:37:50;;;;;;;24.60;15.15;;;;;;;5.39;100.00;98810.28;5075413;28;20017;-88
2020/12/22 08:40:29;;;;;;;28.15;14.95;;;;;;;5.41;100.00;98813.59;5058931;28;20031;-86
2020/12/22 08:42:55;;;;;;;28.75;15.40;;;;;;;5.35;100.00;98803.72;5076715;28;20044;-86
2020/12/22 08:45:21;;;;;;;22.95;16.20;;;;;;;5.47;100.00;98814.53;5077942;28;20033;-87
2020/12/22 08:47:51;;;;;;;26.00;16.85;;;;;;;5.60;100.00;98835.94;5059205;28;20052;-92
2020/12/22 08:50:18;;;;;;;24.60;15.55;;;;;;;5.46;100.00;98808.25;5055670;28;20048;-92
2020/12/22 08:52:43;;;;;;;28.48;16.15;;;;;;;5.58;100.00;98800.06;5056137;28;20028;-84
2020/12/22 08:55:10;;;;;;;28.63;14.60;;;;;;;5.59;100.00;98807.97;5058385;28;20001;-84
2020/12/22 08:57:36;;;;;;;24.77;15.15;;;;;;;5.55;100.00;98800.56;5058946;28;20015;-89
2020/12/22 09:00:16;;;;;;;29.08;15.73;;;;;;;5.54;99.66;98778.06;5076315;28;20025;-85
2020/12/22 09:02:51;;;;;;;20.15;13.77;;;;;;;5.63;99.54;98781.19;5059491;28;20029;-87
2020/12/22 09:05:16;;;;;;;25.35;14.25;;;;;;;5.86;99.72;98791.94;5058513;28;20020;-85
2020/12/22 09:07:42;;;;;;;26.90;16.88;;;;;;;5.81;99.13;98799.97;5076934;28;20018;-82
2020/12/22 09:10:09;;;;;;;24.08;14.38;;;;;;;5.81;98.85;98797.25;5059903;28;20073;-86
2020/12/22 09:12:49;;;;;;;29.63;15.02;;;;;;;5.83;98.97;98803.25;5076515;28;20021;-84
2020/12/22 09:16:02;;;;;;;23.30;14.50;;;;;;;6.10;99.09;98825.25;5077262;28;20047;-82
2020/12/22 09:18:28;;;;;;;19.15;13.13;;;;;;;5.84;98.72;98800.31;5061224;28;20061;-82
2020/12/22 09:21:04;;;;;;;25.73;15.73;;;;;;;5.84;98.89;98815.78;5063675;28;20033;-83
2020/12/22 09:23:45;;;;;;;25.42;14.70;;;;;;;6.01;98.78;98821.28;5063851;28;20032;-81
2020/12/22 09:26:10;;;;;;;22.67;13.60;;;;;;;6.20;99.13;98837.09;5063594;28;20014;-84
2020/12/22 09:28:36;;;;;;;33.88;19.38;;;;;;;6.10;98.91;98815.22;5063424;28;20019;-83
2020/12/22 09:38:45;;;;;;;34.13;18.20;;;;;;;6.42;97.38;98813.56;5396751;22;20045;-87
2020/12/22 09:41:17;;;;;;;29.88;17.35;;;;;;;6.25;97.08;98801.88;5060590;28;20014;-82
2020/12/22 09:43:43;;;;;;;21.90;12.82;;;;;;;6.26;97.29;98819.00;5043143;28;20052;-89
2020/12/22 09:49:31;;;;;;;20.90;12.82;;;;;;;6.41;97.75;98784.75;5061739;28;20044;-87
2020/12/22 09:51:56;;;;;;;25.13;15.25;;;;;;;6.40;97.53;98785.81;5043536;28;20013;-83
2020/12/22 09:54:22;;;;;;;27.48;15.85;;;;;;;6.45;97.17;98785.88;5043364;28;20010;-81
2020/12/22 09:56:49;;;;;;;24.02;15.02;;;;;;;6.37;96.23;98778.16;5060176;28;20021;-83
2020/12/22 09:59:16;;;;;;;24.88;14.05;;;;;;;6.54;96.72;98777.31;5060407;28;20006;-83
2020/12/22 10:01:45;;;;;;;29.40;14.13;;;;;;;6.54;96.47;98770.00;5043153;28;20017;-84
2020/12/22 10:04:11;;;;;;;25.67;14.73;;;;;;;6.70;96.20;98777.31;5064999;28;20030;-88
2020/12/22 10:06:37;;;;;;;21.10;15.77;;;;;;;6.69;95.89;98762.06;5042510;28;20013;-89
2020/12/22 10:09:31;;;;;;;27.50;15.57;;;;;;;6.91;95.49;98797.44;5061268;28;20012;-86
2020/12/22 10:11:57;;;;;;;30.85;17.13;;;;;;;6.99;95.13;98786.13;5043687;28;20075;-87
2020/12/22 10:14:25;;;;;;;26.00;16.35;;;;;;;7.05;94.99;98789.75;5042713;28;20014;-86
2020/12/22 10:16:51;;;;;;;25.13;15.32;;;;;;;7.11;94.63;98786.81;5042290;28;20037;-83
2020/12/22 10:19:16;;;;;;;31.80;18.55;;;;;;;7.18;94.08;98778.47;5059920;28;20044;-80
2020/12/22 10:21:42;;;;;;;23.52;15.63;;;;;;;7.25;93.44;98774.50;5059868;28;20030;-82
2020/12/22 10:24:10;;;;;;;20.60;13.88;;;;;;;7.27;93.50;98776.94;5042967;28;20089;-80
2020/12/22 10:26:36;;;;;;;22.15;14.25;;;;;;;7.26;93.86;98769.88;5042955;28;20014;-81
2020/12/22 10:29:01;;;;;;;31.10;17.45;;;;;;;7.30;93.96;98777.28;5042514;28;20056;-82
2020/12/22 10:31:32;;;;;;;26.23;16.05;;;;;;;7.40;93.92;98791.00;5059780;28;20009;-81
2020/12/22 10:34:00;;;;;;;30.60;16.77;;;;;;;7.41;94.13;98776.31;5056977;28;20032;-81
2020/12/22 10:36:27;;;;;;;26.13;16.27;;;;;;;7.49;93.30;98770.41;5059567;28;20024;-81
2020/12/22 10:38:54;;;;;;;25.55;16.23;;;;;;;7.46;93.58;98756.50;5042579;28;20041;-83
2020/12/22 10:41:22;;;;;;;23.92;13.90;;;;;;;7.76;93.87;98761.47;5059457;28;20009;-83
2020/12/22 10:43:48;;;;;;;23.52;15.10;;;;;;;8.07;93.20;98788.72;5059725;28;20018;-86
2020/12/22 10:46:14;;;;;;;23.45;16.05;;;;;;;7.93;92.50;98748.53;5042557;28;20006;-82
2020/12/22 10:48:40;;;;;;;27.45;15.82;;;;;;;7.83;92.54;98748.47;5059394;28;20012;-82
2020/12/22 10:51:11;;;;;;;27.33;16.67;;;;;;;7.84;92.70;98742.75;5059133;28;20085;-81
2020/12/22 10:53:42;;;;;;;30.35;15.40;;;;;;;7.85;92.47;98741.66;5042420;28;20077;-81
2020/12/22 10:56:14;;;;;;;25.95;14.10;;;;;;;7.78;92.45;98734.78;5058997;28;20056;-84
2020/12/22 10:58:41;;;;;;;24.17;14.52;;;;;;;7.89;92.46;98741.97;5042083;28;20016;-81
2020/12/22 11:01:07;;;;;;;28.13;15.57;;;;;;;7.95;93.30;98751.84;5059242;28;20040;-83
2020/12/22 11:03:33;;;;;;;22.30;14.02;;;;;;;7.79;93.34;98734.53;5042050;28;20065;-82
2020/12/22 11:06:04;;;;;;;24.13;14.32;;;;;;;7.74;94.45;98733.63;5041870;28;20005;-81
2020/12/22 11:08:33;;;;;;;29.65;16.77;;;;;;;7.75;94.55;98755.19;5041855;28;20006;-82
2020/12/22 11:11:01;;;;;;;23.10;14.77;;;;;;;7.54;94.88;98742.44;5058964;28;20010;-85
2020/12/22 11:13:27;;;;;;;23.25;13.57;;;;;;;7.63;95.15;98737.34;5059152;28;20061;-81
2020/12/22 11:15:52;;;;;;;23.83;14.65;;;;;;;7.72;94.75;98747.53;5059262;28;20044;-83
2020/12/22 11:18:18;;;;;;;25.02;14.90;;;;;;;7.68;94.67;98757.28;5058646;28;20040;-81
2020/12/22 11:20:47;;;;;;;25.27;15.82;;;;;;;7.61;95.24;98750.41;5041584;28;20005;-80
2020/12/22 11:23:12;;;;;;;24.98;16.13;;;;;;;7.70;95.15;98748.88;5041560;28;20044;-82
2020/12/22 11:25:38;;;;;;;23.00;15.38;;;;;;;7.70;95.46;98740.69;5041758;28;20006;-80
2020/12/22 11:28:08;;;;;;;27.83;15.80;;;;;;;7.63;95.96;98746.34;5041351;28;20021;-84
2020/12/22 11:30:36;;;;;;;30.23;16.40;;;;;;;7.65;95.54;98732.47;5041620;28;20028;-81
2020/12/22 11:33:04;;;;;;;27.73;16.85;;;;;;;7.59;95.87;98722.59;5058350;28;20006;-86
2020/12/22 11:35:29;;;;;;;32.45;19.13;;;;;;;7.62;96.13;98725.63;5041375;28;20018;-85
2020/12/22 11:37:58;;;;;;;33.78;19.80;;;;;;;7.67;95.90;98719.44;5041091;28;20057;-83
2020/12/22 11:40:26;;;;;;;36.20;17.67;;;;;;;7.63;96.58;98715.56;5040700;28;20013;-83
2020/12/22 11:42:52;;;;;;;33.97;18.45;;;;;;;7.83;96.71;98734.84;5058464;28;20010;-83
2020/12/22 11:45:17;;;;;;;23.80;15.60;;;;;;;7.84;95.87;98725.56;5058851;28;20040;-81
2020/12/22 11:47:46;;;;;;;22.38;13.80;;;;;;;7.85;96.01;98713.59;5041395;28;20009;-81
2020/12/22 11:50:11;;;;;;;18.23;11.27;;;;;;;8.06;95.49;98720.88;5041182;28;20002;-81
2020/12/22 11:52:37;;;;;;;19.98;11.15;;;;;;;8.12;94.72;98719.81;5041009;28;20040;-83
2020/12/22 11:55:04;;;;;;;13.93;9.57;;;;;;;8.30;93.51;98711.25;5041092;28;20017;-81
2020/12/22 11:57:30;;;;;;;15.38;7.32;;;;;;;8.41;92.34;98715.72;5041005;28;20030;-81
2020/12/22 11:59:55;;;;;;;4.38;3.70;;;;;;;8.59;90.54;98717.19;5041047;28;20081;-80
2020/12/22 12:02:21;;;;;;;4.00;2.60;;;;;;;8.77;90.70;98719.47;5055754;28;20032;-95